createdAt,value
2023-01-29T00:01:14.779Z,70.52
2023-01-29T00:03:45.632Z,70.49
2023-01-29T00:06:16.160Z,70.41
2023-01-29T00:08:47.965Z,70.64
2023-01-29T00:11:20.553Z,70.68
2023-01-29T00:13:51.900Z,70.64
2023-01-29T00:16:23.230Z,70.50
2023-01-29T00:18:54.405Z,70.44
2023-01-29T00:21:25.823Z,70.37
2023-01-29T00:23:57.648Z,70.37
2023-01-29T00:26:29.412Z,70.28
2023-01-29T00:29:02.954Z,70.28
2023-01-29T00:31:34.687Z,70.10
2023-01-29T00:34:05.612Z,70.04
2023-01-29T00:36:37.013Z,70.04
2023-01-29T00:44:46.471Z,70.05
2023-01-29T00:47:34.659Z,70.07
2023-01-29T00:50:08.730Z,70.14
2023-01-29T00:52:41.317Z,70.21
2023-01-29T00:55:14.400Z,70.20
2023-01-29T00:57:45.829Z,70.17
2023-01-29T01:03:15.804Z,70.06
2023-01-29T01:05:53.723Z,70.14
2023-01-29T01:08:42.332Z,70.16
2023-01-29T01:11:13.855Z,70.06
2023-01-29T01:13:45.490Z,70.24
2023-01-29T01:16:21.090Z,70.42
2023-01-29T01:18:53.162Z,70.37
2023-01-29T01:21:24.706Z,70.60
2023-01-29T01:24:03.439Z,70.64
2023-01-29T01:26:35.288Z,70.84
2023-01-29T01:29:07.116Z,70.61
2023-01-29T01:31:38.430Z,70.84
2023-01-29T01:34:15.135Z,70.85
2023-01-29T01:36:46.918Z,70.70
2023-01-29T01:39:18.284Z,70.90
2023-01-29T01:41:52.448Z,70.69
2023-01-29T01:49:16.077Z,70.64
2023-01-29T01:51:51.514Z,71.04
2023-01-29T01:54:26.100Z,71.28
2023-01-29T01:57:09.907Z,71.35
2023-01-29T01:59:43.542Z,71.41
2023-01-29T02:02:32.934Z,71.49
2023-01-29T02:05:23.897Z,71.52
2023-01-29T02:08:13.428Z,71.68
2023-01-29T02:10:48.787Z,71.87
2023-01-29T02:13:19.982Z,71.96
2023-01-29T02:15:54.168Z,72.03
2023-01-29T02:18:25.903Z,72.14
2023-01-29T02:21:10.702Z,72.21
2023-01-29T02:24:14.816Z,72.40
2023-01-29T02:26:57.037Z,72.40
2023-01-29T02:29:35.549Z,72.44
2023-01-29T02:32:15.508Z,72.63
2023-01-29T02:35:07.817Z,72.66
2023-01-29T02:37:41.769Z,72.88
2023-01-29T02:40:23.147Z,72.82
2023-01-29T02:43:01.566Z,72.89
2023-01-29T02:45:36.821Z,72.80
2023-01-29T02:48:08.354Z,72.73
2023-01-29T02:50:43.389Z,72.72
2023-01-29T02:53:18.729Z,72.40
2023-01-29T02:55:53.094Z,72.35
2023-01-29T02:58:31.048Z,72.35
2023-01-29T03:01:06.621Z,72.14
2023-01-29T03:03:42.140Z,72.15
2023-01-29T03:06:22.824Z,72.06
2023-01-29T03:08:58.113Z,71.98
2023-01-29T03:11:33.657Z,71.86
2023-01-29T03:14:07.550Z,72.21
2023-01-29T03:16:43.395Z,72.57
2023-01-29T03:19:17.760Z,72.51
2023-01-29T03:21:59.924Z,72.52
2023-01-29T03:24:56.148Z,72.57
2023-01-29T03:27:48.904Z,72.80
2023-01-29T03:30:39.444Z,72.95
2023-01-29T03:33:24.242Z,73.24
2023-01-29T03:36:01.167Z,73.33
2023-01-29T03:38:34.762Z,73.40
2023-01-29T03:41:06.996Z,73.44
2023-01-29T03:43:42.815Z,73.62
2023-01-29T03:46:22.740Z,73.73
2023-01-29T03:49:00.237Z,74.06
2023-01-29T03:51:36.692Z,74.05
2023-01-29T03:54:13.580Z,74.35
2023-01-29T03:56:56.199Z,74.41
2023-01-29T03:59:35.229Z,74.65
2023-01-29T04:02:19.672Z,74.78
2023-01-29T04:04:52.457Z,74.89
2023-01-29T04:07:25.339Z,75.00
2023-01-29T04:10:07.136Z,75.04
2023-01-29T04:12:43.028Z,75.18
2023-01-29T04:15:17.519Z,75.33
2023-01-29T04:17:53.080Z,75.41
2023-01-29T04:20:47.714Z,75.52
2023-01-29T04:23:26.703Z,75.63
2023-01-29T04:26:10.048Z,75.85
2023-01-29T04:28:53.803Z,75.86
2023-01-29T04:31:28.961Z,75.95
2023-01-29T04:34:10.508Z,76.04
2023-01-29T04:36:51.434Z,76.27
2023-01-29T04:39:28.316Z,76.42
2023-01-29T04:42:07.351Z,76.37
2023-01-29T04:44:44.068Z,76.07
2023-01-29T04:47:23.598Z,75.86
2023-01-29T04:50:00.832Z,75.90
2023-01-29T04:52:39.021Z,75.84
2023-01-29T04:55:14.892Z,75.66
2023-01-29T04:57:51.153Z,75.44
2023-01-29T05:00:27.408Z,75.64
2023-01-29T05:02:59.951Z,75.56
2023-01-29T05:05:32.466Z,75.58
2023-01-29T05:08:03.597Z,75.78
2023-01-29T05:10:35.263Z,76.01
2023-01-29T05:13:08.147Z,75.92
2023-01-29T05:15:43.935Z,76.08
2023-01-29T05:18:16.052Z,76.09
2023-01-29T05:20:47.777Z,76.20
2023-01-29T05:23:21.461Z,76.38
2023-01-29T05:25:53.996Z,76.64
2023-01-29T05:28:29.331Z,76.72
2023-01-29T05:31:02.710Z,76.84
2023-01-29T05:33:36.140Z,76.78
2023-01-29T05:36:09.781Z,76.91
2023-01-29T05:38:43.687Z,77.09
2023-01-29T05:41:15.527Z,77.09
2023-01-29T05:43:47.141Z,77.21
2023-01-29T05:46:18.467Z,77.38
2023-01-29T05:48:52.497Z,77.50
2023-01-29T05:51:23.133Z,77.68
2023-01-29T05:53:54.013Z,77.79
2023-01-29T05:56:25.372Z,77.97
2023-01-29T05:58:56.579Z,78.12
2023-01-29T06:01:28.426Z,78.12
2023-01-29T06:03:59.661Z,78.36
2023-01-29T06:06:30.849Z,78.62
2023-01-29T06:09:01.573Z,78.80
2023-01-29T06:11:32.490Z,78.82
2023-01-29T06:14:04.439Z,79.10
2023-01-29T06:16:35.476Z,79.08
2023-01-29T06:19:06.065Z,78.89
2023-01-29T06:21:36.347Z,78.90
2023-01-29T06:24:07.720Z,78.82
2023-01-29T06:26:38.117Z,78.89
2023-01-29T06:29:08.691Z,78.78
2023-01-29T06:31:40.035Z,78.78
2023-01-29T06:34:10.667Z,78.86
2023-01-29T06:36:41.766Z,78.73
2023-01-29T06:39:12.962Z,78.83
2023-01-29T06:41:45.281Z,78.77
2023-01-29T06:44:16.556Z,78.73
2023-01-29T06:46:47.658Z,78.91
2023-01-29T06:49:22.813Z,78.70
2023-01-29T06:51:54.578Z,78.84
2023-01-29T06:54:26.086Z,78.87
2023-01-29T06:56:57.579Z,78.89
2023-01-29T06:59:29.125Z,78.91
2023-01-29T07:02:00.263Z,78.98
2023-01-29T07:04:30.741Z,79.02
2023-01-29T07:07:02.015Z,79.01
2023-01-29T07:09:32.589Z,79.00
2023-01-29T07:12:02.860Z,78.97
2023-01-29T07:14:33.508Z,79.03
2023-01-29T07:17:04.460Z,79.10
2023-01-29T07:19:35.277Z,79.27
2023-01-29T07:22:06.576Z,79.43
2023-01-29T07:24:37.355Z,79.31
2023-01-29T07:27:08.040Z,79.50
2023-01-29T07:29:40.574Z,79.64
2023-01-29T07:32:12.771Z,79.61
2023-01-29T07:34:45.717Z,79.70
2023-01-29T07:37:19.596Z,79.72
2023-01-29T07:39:52.374Z,79.73
2023-01-29T07:42:26.123Z,79.66
2023-01-29T07:45:00.114Z,79.77
2023-01-29T07:47:31.400Z,79.76
2023-01-29T07:50:02.698Z,79.73
2023-01-29T07:52:36.684Z,79.74
2023-01-29T07:55:10.335Z,79.57
2023-01-29T07:57:42.181Z,79.47
2023-01-29T08:00:18.756Z,79.44
2023-01-29T08:02:53.195Z,79.14
2023-01-29T08:05:26.811Z,78.96
2023-01-29T08:08:06.452Z,78.40
2023-01-29T08:10:41.634Z,78.11
2023-01-29T08:13:14.730Z,77.93
2023-01-29T08:15:47.935Z,77.60
2023-01-29T08:18:20.712Z,77.33
2023-01-29T08:20:52.838Z,77.06
2023-01-29T08:23:25.753Z,76.94
2023-01-29T08:25:57.905Z,77.03
2023-01-29T08:28:30.741Z,77.06
2023-01-29T08:37:42.159Z,75.83
2023-01-29T08:40:14.566Z,75.53
2023-01-29T08:42:44.906Z,75.16
2023-01-29T08:45:15.784Z,74.81
2023-01-29T08:47:49.385Z,74.40
2023-01-29T08:50:20.502Z,73.71
2023-01-29T08:52:51.014Z,73.46
2023-01-29T08:55:21.497Z,73.51
2023-01-29T08:57:51.825Z,73.14
2023-01-29T09:00:23.246Z,73.11
2023-01-29T09:02:53.656Z,72.95
2023-01-29T09:05:24.021Z,72.53
2023-01-29T09:07:54.404Z,72.61
2023-01-29T09:10:24.892Z,72.31
2023-01-29T09:12:55.345Z,72.29
2023-01-29T09:15:25.682Z,71.88
2023-01-29T09:17:56.062Z,71.71
2023-01-29T09:20:26.405Z,71.63
2023-01-29T09:22:59.105Z,71.51
2023-01-29T09:25:29.445Z,71.52
2023-01-29T09:27:59.822Z,71.06
2023-01-29T09:30:30.227Z,70.86
2023-01-29T09:33:02.514Z,70.71
2023-01-29T09:35:32.845Z,70.45
2023-01-29T09:38:03.563Z,70.45
2023-01-29T09:40:39.763Z,69.46
2023-01-29T09:43:16.856Z,68.84
2023-01-29T09:45:53.556Z,69.14
2023-01-29T09:48:26.214Z,69.16
2023-01-29T09:50:57.462Z,69.10
2023-01-29T09:53:32.971Z,69.22
2023-01-29T09:56:05.245Z,69.15
2023-01-29T09:58:37.841Z,69.41
2023-01-29T10:01:16.359Z,69.07
2023-01-29T10:04:23.375Z,68.82
2023-01-29T10:07:04.808Z,68.74
2023-01-29T10:09:58.245Z,68.92
2023-01-29T10:12:33.924Z,69.21
2023-01-29T10:15:10.571Z,68.83
2023-01-29T10:17:50.862Z,68.80
2023-01-29T10:20:37.445Z,68.79
2023-01-29T10:23:19.316Z,68.50
2023-01-29T10:25:50.535Z,68.07
2023-01-29T10:28:24.487Z,67.99
2023-01-29T10:30:59.221Z,67.97
2023-01-29T10:33:49.372Z,67.78
2023-01-29T10:36:29.990Z,67.82
2023-01-29T10:39:00.391Z,67.60
2023-01-29T10:41:50.089Z,67.46
2023-01-29T10:44:31.456Z,66.63
2023-01-29T10:47:17.966Z,66.48
2023-01-29T10:50:06.563Z,66.16
2023-01-29T10:52:46.512Z,65.79
2023-01-29T10:55:25.975Z,65.80
2023-01-29T10:58:03.135Z,65.56
2023-01-29T11:04:53.387Z,64.16
2023-01-29T11:08:04.402Z,63.04
2023-01-29T11:10:40.377Z,62.69
2023-01-29T11:13:16.082Z,62.34
2023-01-29T11:15:46.515Z,62.12
2023-01-29T11:18:17.521Z,62.26
2023-01-29T11:20:48.536Z,62.60
2023-01-29T11:23:29.497Z,62.69
2023-01-29T11:26:01.312Z,62.75
2023-01-29T11:28:43.241Z,62.25
2023-01-29T11:31:27.606Z,62.24
2023-01-29T11:34:06.971Z,62.19
2023-01-29T11:36:39.631Z,60.44
2023-01-29T11:39:18.880Z,58.58
2023-01-29T11:41:54.266Z,57.20
2023-01-29T11:44:30.760Z,56.78
2023-01-29T11:47:11.193Z,57.39
2023-01-29T11:49:45.548Z,58.25
2023-01-29T11:52:17.810Z,56.96
2023-01-29T11:54:50.314Z,55.91
2023-01-29T11:57:27.741Z,56.54
2023-01-29T11:59:59.500Z,56.33
2023-01-29T12:02:35.479Z,55.35
2023-01-29T12:05:16.902Z,54.83
2023-01-29T12:07:49.770Z,53.82
2023-01-29T12:10:35.592Z,53.09
2023-01-29T12:13:22.953Z,51.26
2023-01-29T12:16:10.680Z,52.02
2023-01-29T12:18:43.150Z,51.48
2023-01-29T12:21:18.080Z,51.86
2023-01-29T12:23:53.440Z,51.58
2023-01-29T12:26:28.702Z,52.31
2023-01-29T12:29:16.867Z,52.10
2023-01-29T12:31:53.363Z,52.84
2023-01-29T12:34:28.642Z,53.18
2023-01-29T12:37:02.171Z,53.26
2023-01-29T12:39:33.380Z,53.41
2023-01-29T12:42:06.947Z,53.97
2023-01-29T12:44:42.519Z,54.10
2023-01-29T12:47:18.552Z,54.27
2023-01-29T12:49:51.990Z,55.14
2023-01-29T12:52:27.779Z,55.14
2023-01-29T12:55:02.912Z,54.89
2023-01-29T12:57:38.241Z,55.33
2023-01-29T13:00:13.996Z,56.08
2023-01-29T13:02:49.569Z,56.56
2023-01-29T13:05:23.783Z,57.34
2023-01-29T13:07:58.513Z,57.44
2023-01-29T13:10:34.063Z,57.48
2023-01-29T13:13:08.182Z,58.25
2023-01-29T13:15:41.305Z,58.58
2023-01-29T13:18:34.330Z,58.41
2023-01-29T13:21:06.315Z,57.82
2023-01-29T13:23:40.844Z,57.24
2023-01-29T13:26:12.971Z,57.07
2023-01-29T13:28:47.349Z,56.17
2023-01-29T13:31:27.906Z,56.28
2023-01-29T13:34:03.504Z,56.38
2023-01-29T13:36:34.324Z,55.97
2023-01-29T13:39:06.872Z,55.66
2023-01-29T13:41:39.851Z,55.61
2023-01-29T13:44:19.551Z,56.45
2023-01-29T13:46:55.028Z,56.90
2023-01-29T13:49:30.356Z,57.40
2023-01-29T13:52:01.711Z,57.47
2023-01-29T13:54:32.112Z,57.62
2023-01-29T13:57:03.884Z,57.90
2023-01-29T13:59:57.551Z,58.32
2023-01-29T14:02:29.585Z,58.96
2023-01-29T14:05:30.951Z,59.47
2023-01-29T14:08:02.565Z,60.16
2023-01-29T14:10:34.294Z,60.64
2023-01-29T14:13:30.329Z,60.94
2023-01-29T14:16:36.239Z,61.31
2023-01-29T14:19:07.772Z,61.86
2023-01-29T14:21:39.616Z,62.16
2023-01-29T14:24:19.427Z,62.41
2023-01-29T14:32:54.219Z,63.16
2023-01-29T14:35:26.770Z,63.40
2023-01-29T14:37:59.156Z,63.61
2023-01-29T14:40:30.949Z,63.95
2023-01-29T14:43:04.821Z,64.23
2023-01-29T14:45:35.980Z,64.42
2023-01-29T14:48:33.953Z,64.56
2023-01-29T14:51:10.900Z,64.84
2023-01-29T14:53:51.326Z,65.04
2023-01-29T14:56:25.939Z,65.19
2023-01-29T14:59:00.875Z,65.22
2023-01-29T15:01:35.432Z,65.45
2023-01-29T15:04:08.419Z,65.77
2023-01-29T15:06:39.884Z,65.94
2023-01-29T15:09:15.648Z,66.08
2023-01-29T15:11:53.031Z,66.31
2023-01-29T15:14:32.497Z,66.51
2023-01-29T15:17:19.819Z,66.61
2023-01-29T15:19:50.879Z,66.76
2023-01-29T15:22:23.341Z,66.73
2023-01-29T15:25:08.771Z,66.76
2023-01-29T15:27:43.915Z,66.88
2023-01-29T15:30:19.378Z,67.09
2023-01-29T15:32:50.157Z,67.25
2023-01-29T15:35:30.314Z,67.35
2023-01-29T15:38:05.939Z,67.46
2023-01-29T15:40:36.712Z,67.48
2023-01-29T15:43:22.597Z,67.74
2023-01-29T15:45:54.037Z,67.69
2023-01-29T15:48:31.987Z,67.92
2023-01-29T15:51:05.173Z,67.97
2023-01-29T15:53:38.540Z,68.15
2023-01-29T15:56:13.392Z,68.25
2023-01-29T15:58:44.358Z,68.54
2023-01-29T16:01:15.678Z,68.90
2023-01-29T16:03:46.673Z,69.19
2023-01-29T16:06:17.531Z,69.29
2023-01-29T16:08:51.984Z,69.61
2023-01-29T16:11:22.872Z,69.82
2023-01-29T16:13:54.091Z,70.11
2023-01-29T16:16:27.863Z,70.19
2023-01-29T16:19:00.688Z,70.40
2023-01-29T16:21:36.297Z,70.50
2023-01-29T16:24:11.952Z,70.82
2023-01-29T16:27:00.275Z,70.84
2023-01-29T16:29:38.973Z,71.17
2023-01-29T16:32:13.857Z,71.61
2023-01-29T16:34:48.078Z,71.65
2023-01-29T16:37:24.001Z,71.94
2023-01-29T16:39:54.805Z,72.31
2023-01-29T16:42:28.507Z,72.53
2023-01-29T16:45:01.522Z,72.74
2023-01-29T16:47:34.939Z,72.91
2023-01-29T16:50:05.189Z,73.05
2023-01-29T16:52:36.474Z,73.23
2023-01-29T16:55:26.763Z,73.50
2023-01-29T16:57:57.841Z,73.68
2023-01-29T17:00:29.015Z,73.97
2023-01-29T17:03:04.323Z,74.21
2023-01-29T17:05:37.287Z,74.54
2023-01-29T17:08:06.792Z,74.75
2023-01-29T17:10:37.303Z,74.93
2023-01-29T17:13:09.931Z,75.12
2023-01-29T17:15:48.936Z,75.56
2023-01-29T17:18:21.413Z,76.05
2023-01-29T17:20:53.004Z,75.87
2023-01-29T17:23:23.993Z,75.81
2023-01-29T17:25:54.369Z,75.99
2023-01-29T17:28:24.817Z,76.05
2023-01-29T17:31:05.896Z,76.32
2023-01-29T17:33:39.033Z,76.51
2023-01-29T17:36:13.883Z,76.68
2023-01-29T17:39:00.443Z,76.88
2023-01-29T17:41:32.387Z,77.33
2023-01-29T17:44:03.152Z,77.16
2023-01-29T17:46:33.748Z,77.20
2023-01-29T17:49:04.580Z,77.25
2023-01-29T17:51:35.416Z,77.25
2023-01-29T17:54:06.454Z,77.17
2023-01-29T17:56:37.016Z,77.39
2023-01-29T17:59:14.391Z,77.45
2023-01-29T18:01:45.185Z,77.46
2023-01-29T18:04:15.805Z,77.56
2023-01-29T18:06:48.326Z,77.80
2023-01-29T18:09:20.799Z,78.16
2023-01-29T18:11:52.033Z,78.01
2023-01-29T18:14:22.943Z,78.14
2023-01-29T18:16:53.402Z,78.16
2023-01-29T18:19:28.242Z,78.30
2023-01-29T18:21:58.635Z,78.44
2023-01-29T18:24:30.091Z,78.57
2023-01-29T18:27:01.110Z,78.73
2023-01-29T18:29:31.639Z,78.76
2023-01-29T18:32:02.106Z,78.70
2023-01-29T18:34:32.803Z,78.81
2023-01-29T18:37:03.574Z,79.08
2023-01-29T18:39:34.326Z,79.26
2023-01-29T18:42:04.907Z,79.26
2023-01-29T18:44:35.490Z,79.13
2023-01-29T18:47:05.958Z,79.25
2023-01-29T18:49:38.865Z,79.41
2023-01-29T18:52:08.081Z,79.57
2023-01-29T18:54:38.553Z,79.79
2023-01-29T18:57:14.525Z,79.92
2023-01-29T18:59:59.353Z,79.90
2023-01-29T19:02:30.565Z,80.02
2023-01-29T19:05:01.095Z,80.01
2023-01-29T19:07:31.542Z,79.86
2023-01-29T19:10:04.792Z,79.67
2023-01-29T19:12:35.613Z,80.06
2023-01-29T19:15:07.450Z,80.41
2023-01-29T19:17:38.449Z,80.52
2023-01-29T19:20:11.514Z,80.41
2023-01-29T19:22:42.584Z,80.51
2023-01-29T19:25:13.748Z,80.26
2023-01-29T19:27:44.172Z,80.33
2023-01-29T19:30:15.922Z,80.18
2023-01-29T19:32:46.525Z,79.87
2023-01-29T19:35:17.285Z,79.93
2023-01-29T19:37:48.043Z,79.95
2023-01-29T19:40:19.740Z,79.89
2023-01-29T19:42:50.399Z,79.78
2023-01-29T19:45:49.734Z,79.92
2023-01-29T19:48:20.267Z,79.61
2023-01-29T19:50:55.479Z,79.42
2023-01-29T19:53:26.239Z,79.17
2023-01-29T19:56:06.178Z,79.11
2023-01-29T19:58:37.051Z,78.95
2023-01-29T20:01:09.350Z,78.98
2023-01-29T20:03:42.008Z,78.89
2023-01-29T20:06:12.458Z,79.04
2023-01-29T20:08:42.817Z,79.02
2023-01-29T20:11:14.705Z,78.91
2023-01-29T20:13:47.181Z,78.89
2023-01-29T20:16:18.288Z,78.74
2023-01-29T20:18:49.136Z,78.54
2023-01-29T20:21:22.699Z,78.53
2023-01-29T20:23:53.903Z,78.32
2023-01-29T20:26:24.386Z,78.28
2023-01-29T20:28:54.963Z,78.29
2023-01-29T20:31:25.531Z,78.19
2023-01-29T20:34:10.775Z,78.10
2023-01-29T20:36:41.399Z,77.99
2023-01-29T20:39:12.095Z,77.95
2023-01-29T20:41:42.738Z,77.79
2023-01-29T20:44:13.252Z,77.69
2023-01-29T20:46:43.751Z,77.63
2023-01-29T20:49:14.365Z,77.38
2023-01-29T20:51:45.201Z,77.32
2023-01-29T20:54:15.615Z,77.31
2023-01-29T20:56:47.254Z,77.31
2023-01-29T20:59:18.276Z,77.40
2023-01-29T21:01:49.539Z,77.22
2023-01-29T21:04:20.093Z,77.20
2023-01-29T21:06:50.780Z,77.09
2023-01-29T21:09:21.311Z,77.29
2023-01-29T21:11:51.789Z,77.33
2023-01-29T21:14:22.641Z,77.28
2023-01-29T21:16:53.280Z,77.18
2023-01-29T21:19:23.755Z,77.11
2023-01-29T21:21:54.546Z,77.03
2023-01-29T21:24:25.728Z,76.91
2023-01-29T21:26:56.408Z,76.77
2023-01-29T21:29:26.823Z,76.65
2023-01-29T21:31:57.316Z,76.59
2023-01-29T21:34:28.329Z,76.72
2023-01-29T21:36:58.833Z,76.57
2023-01-29T21:39:29.413Z,76.58
2023-01-29T21:42:25.471Z,76.56
2023-01-29T21:44:55.952Z,76.54
2023-01-29T21:47:26.388Z,76.49
2023-01-29T21:49:56.747Z,76.42
2023-01-29T21:52:27.131Z,76.30
2023-01-29T21:54:57.574Z,76.37
2023-01-29T21:57:27.989Z,76.48
2023-01-29T21:59:59.468Z,76.52
2023-01-29T22:02:32.231Z,76.57
2023-01-29T22:05:17.548Z,76.50
2023-01-29T22:07:48.650Z,76.42
2023-01-29T22:10:21.017Z,76.53
2023-01-29T22:12:52.187Z,76.49
2023-01-29T22:15:24.159Z,76.44
2023-01-29T22:17:54.721Z,76.49
2023-01-29T22:20:30.201Z,76.52
2023-01-29T22:23:01.422Z,76.62
2023-01-29T22:25:32.475Z,76.59
2023-01-29T22:28:03.214Z,76.66
2023-01-29T22:30:33.899Z,76.65
2023-01-29T22:33:04.494Z,76.65
2023-01-29T22:35:35.066Z,76.63
2023-01-29T22:38:05.804Z,76.69
2023-01-29T22:40:36.612Z,76.80
2023-01-29T22:43:07.571Z,76.75
2023-01-29T22:45:41.273Z,76.83
2023-01-29T22:48:12.334Z,76.70
2023-01-29T22:50:43.004Z,76.72
2023-01-29T22:53:13.790Z,76.73
2023-01-29T22:55:44.305Z,76.58
2023-01-29T22:58:14.555Z,76.67
2023-01-29T23:00:44.980Z,76.64
2023-01-29T23:03:15.456Z,76.69
2023-01-29T23:05:45.939Z,76.65
2023-01-29T23:08:16.516Z,76.74
2023-01-29T23:10:46.849Z,76.76
2023-01-29T23:13:17.620Z,76.82
2023-01-29T23:15:48.084Z,76.81
2023-01-29T23:18:18.662Z,76.81
2023-01-29T23:20:49.238Z,76.75
2023-01-29T23:23:19.663Z,76.64
2023-01-29T23:26:07.743Z,76.64
2023-01-29T23:28:38.182Z,76.71
2023-01-29T23:31:08.834Z,76.92
2023-01-29T23:33:39.317Z,76.91
2023-01-29T23:36:11.048Z,76.94
2023-01-29T23:38:41.378Z,76.94
2023-01-29T23:41:11.808Z,76.94
2023-01-29T23:43:42.233Z,76.89
2023-01-29T23:46:12.712Z,77.02
2023-01-29T23:48:43.170Z,77.02
2023-01-29T23:51:13.467Z,76.97
2023-01-29T23:53:44.151Z,76.97
2023-01-29T23:56:14.676Z,77.08
2023-01-29T23:58:46.021Z,77.15
